Time;durP1;ratioP1;P1;durP2;ratioP2;P2;SDS_P1;SDS_P2;PMS_P1;PMS_P2;Temp;Humidity;BMP_temperature;BMP_pressure;BME280_temperature;BME280_humidity;BME280_pressure;Samples;Min_cycle;Max_cycle;Signal;HPM_P1;HPM_P2
2023/09/01 00:02:05;;;;;;;3.35;1.63;;;12.20;99.90;;;;;;5011489;28;20030;-82
2023/09/01 00:04:30;;;;;;;3.85;2.13;;;12.20;99.90;;;;;;5007753;28;20073;-84
2023/09/01 00:06:56;;;;;;;3.10;1.83;;;12.20;99.90;;;;;;5001435;28;20046;-82
2023/09/01 00:09:22;;;;;;;2.55;1.50;;;12.20;99.90;;;;;;4998537;28;20025;-84
2023/09/01 00:11:47;;;;;;;1.65;1.33;;;12.10;99.90;;;;;;5010521;28;20029;-83
2023/09/01 00:14:13;;;;;;;2.75;1.10;;;12.10;99.90;;;;;;4999220;28;20026;-83
2023/09/01 00:16:38;;;;;;;1.70;1.58;;;12.20;99.90;;;;;;5012755;28;20026;-84
2023/09/01 00:19:04;;;;;;;2.95;1.70;;;12.20;99.90;;;;;;5007892;28;20048;-82
2023/09/01 00:21:30;;;;;;;3.53;1.70;;;12.20;99.90;;;;;;4996714;28;20212;-83
2023/09/01 00:23:56;;;;;;;3.03;1.75;;;12.20;99.90;;;;;;4994566;28;20043;-83
2023/09/01 00:26:21;;;;;;;2.25;1.35;;;12.20;99.90;;;;;;5005131;28;20048;-82
2023/09/01 00:28:47;;;;;;;2.75;1.42;;;12.20;99.90;;;;;;5000217;28;20082;-83
2023/09/01 00:31:16;;;;;;;2.55;1.77;;;12.20;99.90;;;;;;4990293;28;20070;-84
2023/09/01 00:33:41;;;;;;;2.25;1.88;;;12.20;99.90;;;;;;5004348;28;20025;-84
2023/09/01 00:36:07;;;;;;;1.95;1.67;;;12.30;99.90;;;;;;5004499;28;20026;-83
2023/09/01 00:38:35;;;;;;;5.93;2.20;;;12.20;99.90;;;;;;5010463;28;20043;-83
2023/09/01 00:41:00;;;;;;;2.53;2.22;;;12.30;99.90;;;;;;5008487;28;20018;-84
2023/09/01 00:43:26;;;;;;;6.15;2.30;;;12.30;99.90;;;;;;5008403;28;20304;-83
2023/09/01 00:45:51;;;;;;;1.55;1.45;;;12.30;99.90;;;;;;5008744;28;20057;-83
2023/09/01 00:48:18;;;;;;;2.80;1.88;;;12.30;99.90;;;;;;4992419;28;20040;-83
2023/09/01 00:50:47;;;;;;;3.47;1.77;;;12.40;99.90;;;;;;4993505;28;20038;-84
2023/09/01 00:53:13;;;;;;;3.75;2.17;;;12.40;99.90;;;;;;4994302;28;20015;-82
2023/09/01 00:55:39;;;;;;;3.88;1.70;;;12.40;99.90;;;;;;4996044;28;20045;-82
2023/09/01 00:58:05;;;;;;;2.25;1.60;;;12.40;99.90;;;;;;5008400;28;20029;-84
2023/09/01 01:00:34;;;;;;;1.85;1.33;;;12.40;99.90;;;;;;5012395;28;20030;-83
2023/09/01 01:03:05;;;;;;;4.45;1.90;;;12.40;99.90;;;;;;5001422;28;20018;-84
2023/09/01 01:05:41;;;;;;;2.90;2.03;;;12.40;99.90;;;;;;5003419;28;20044;-84
2023/09/01 01:08:41;;;;;;;3.10;1.70;;;12.50;99.90;;;;;;5012205;28;20017;-84
2023/09/01 01:11:16;;;;;;;2.45;1.60;;;12.40;99.90;;;;;;4999299;28;20372;-84
2023/09/01 01:13:47;;;;;;;2.45;1.27;;;12.50;99.90;;;;;;5014852;28;20021;-83
2023/09/01 01:16:15;;;;;;;2.97;1.40;;;12.50;99.90;;;;;;5014482;28;20453;-83
2023/09/01 01:18:42;;;;;;;4.50;1.88;;;12.40;99.90;;;;;;5009409;28;20022;-84
2023/09/01 01:21:21;;;;;;;4.45;1.90;;;12.40;99.90;;;;;;5003444;28;20056;-83
2023/09/01 01:23:47;;;;;;;1.92;1.67;;;12.40;99.90;;;;;;4998553;28;20037;-84
2023/09/01 01:26:16;;;;;;;3.13;1.55;;;12.40;99.90;;;;;;5010870;28;20026;-83
2023/09/01 01:28:41;;;;;;;4.10;1.77;;;12.40;99.90;;;;;;4994477;28;20098;-83
2023/09/01 01:31:07;;;;;;;2.33;1.30;;;12.40;99.90;;;;;;5008785;28;20057;-84
2023/09/01 01:33:54;;;;;;;2.72;1.30;;;12.40;99.90;;;;;;5000871;28;20039;-83
2023/09/01 01:36:28;;;;;;;;;;;12.40;99.90;;;;;;5009662;28;20053;-84
2023/09/01 01:39:05;;;;;;;3.15;1.73;;;12.40;99.90;;;;;;4998244;28;19973;-83
2023/09/01 01:41:48;;;;;;;2.33;1.83;;;12.40;99.90;;;;;;5018272;28;20049;-84
2023/09/01 01:44:17;;;;;;;2.92;2.20;;;12.40;99.90;;;;;;5014812;28;20160;-82
2023/09/01 01:46:44;;;;;;;3.90;1.85;;;12.40;99.90;;;;;;5003139;28;20038;-84
2023/09/01 01:49:09;;;;;;;2.83;1.63;;;12.40;99.90;;;;;;5011341;28;20394;-83
2023/09/01 01:51:36;;;;;;;4.57;1.85;;;12.40;99.90;;;;;;5005022;28;20026;-84
2023/09/01 01:54:02;;;;;;;3.53;1.65;;;12.40;99.90;;;;;;5010725;28;20093;-84
2023/09/01 01:56:27;;;;;;;4.63;2.08;;;12.40;99.90;;;;;;5006900;28;20028;-84
2023/09/01 01:58:53;;;;;;;4.03;1.70;;;12.40;99.90;;;;;;5010307;28;20046;-84
2023/09/01 02:01:19;;;;;;;2.13;1.92;;;12.40;99.90;;;;;;5016730;28;20411;-83
2023/09/01 02:03:44;;;;;;;5.93;2.10;;;12.40;99.90;;;;;;5011173;28;20136;-84
2023/09/01 02:06:13;;;;;;;3.90;1.70;;;12.40;99.90;;;;;;5017328;28;20021;-84
2023/09/01 02:08:38;;;;;;;3.53;1.75;;;12.40;99.90;;;;;;5006238;28;20022;-84
2023/09/01 02:11:04;;;;;;;3.33;1.70;;;12.30;99.90;;;;;;5013535;28;20105;-82
2023/09/01 02:13:30;;;;;;;3.30;1.77;;;12.40;99.90;;;;;;5019413;28;20060;-83
2023/09/01 02:15:56;;;;;;;6.78;1.90;;;12.30;99.90;;;;;;5015050;28;20027;-83
2023/09/01 02:18:22;;;;;;;2.70;1.80;;;12.30;99.90;;;;;;5009736;28;20026;-84
2023/09/01 02:20:47;;;;;;;1.88;1.55;;;12.30;99.90;;;;;;5010821;28;20018;-84
2023/09/01 02:23:19;;;;;;;2.83;1.25;;;12.30;99.90;;;;;;5007321;28;20030;-84
2023/09/01 02:25:45;;;;;;;2.63;1.98;;;12.30;99.90;;;;;;5012160;28;21291;-83
2023/09/01 02:28:11;;;;;;;2.58;1.58;;;12.30;99.90;;;;;;5017181;28;20030;-84
2023/09/01 02:30:37;;;;;;;3.50;1.70;;;12.30;99.90;;;;;;5002220;28;20049;-84
2023/09/01 02:33:03;;;;;;;3.45;2.00;;;12.30;99.90;;;;;;5010056;28;20030;-84
2023/09/01 02:35:29;;;;;;;5.07;2.00;;;12.30;99.90;;;;;;5017295;28;20060;-84
2023/09/01 02:37:54;;;;;;;6.60;1.90;;;12.30;99.90;;;;;;5012732;28;20089;-84
2023/09/01 02:40:24;;;;;;;3.88;1.73;;;12.30;99.90;;;;;;5011109;28;20090;-84
2023/09/01 02:42:50;;;;;;;2.35;1.60;;;12.40;99.90;;;;;;4995796;28;20060;-83
2023/09/01 02:45:15;;;;;;;3.53;1.90;;;12.30;99.90;;;;;;5007047;28;20109;-84
2023/09/01 02:47:43;;;;;;;2.42;1.92;;;12.30;99.90;;;;;;5013326;28;20405;-83
2023/09/01 02:50:09;;;;;;;3.63;1.67;;;12.40;99.90;;;;;;5006713;28;20426;-84
2023/09/01 02:52:35;;;;;;;1.90;1.60;;;12.30;99.90;;;;;;5023485;28;20091;-83
2023/09/01 02:55:01;;;;;;;4.38;2.00;;;12.30;99.90;;;;;;5012088;28;20030;-84
2023/09/01 02:57:26;;;;;;;2.03;1.85;;;12.30;99.90;;;;;;5007224;28;20102;-84
2023/09/01 02:59:53;;;;;;;3.92;1.67;;;12.30;99.90;;;;;;5020866;28;20026;-84
2023/09/01 03:02:19;;;;;;;1.80;1.42;;;12.30;99.90;;;;;;5007983;28;20022;-84
2023/09/01 03:04:44;;;;;;;3.38;1.80;;;12.30;99.90;;;;;;5014440;28;20309;-84
2023/09/01 03:07:10;;;;;;;2.78;1.70;;;12.30;99.90;;;;;;5015800;28;20030;-83
2023/09/01 03:09:36;;;;;;;4.95;2.10;;;12.30;99.90;;;;;;5010237;28;20030;-84
2023/09/01 03:12:01;;;;;;;8.77;1.83;;;12.30;99.90;;;;;;5019045;28;20048;-84
2023/09/01 03:14:27;;;;;;;3.85;1.38;;;12.30;99.90;;;;;;5010817;28;20069;-84
2023/09/01 03:16:53;;;;;;;3.88;1.52;;;12.30;99.90;;;;;;5020603;28;20022;-83
2023/09/01 03:19:18;;;;;;;2.35;1.67;;;12.30;99.90;;;;;;5015261;28;20669;-84
2023/09/01 03:21:44;;;;;;;4.10;1.67;;;12.30;99.90;;;;;;5023647;28;20086;-84
2023/09/01 03:24:09;;;;;;;5.95;2.08;;;12.30;99.90;;;;;;5007581;28;20023;-84
2023/09/01 03:26:35;;;;;;;2.22;1.55;;;12.30;99.90;;;;;;5011616;28;20113;-84
2023/09/01 03:29:02;;;;;;;1.90;1.42;;;12.30;99.90;;;;;;5016847;28;20041;-85
2023/09/01 03:31:28;;;;;;;2.88;2.42;;;12.30;99.90;;;;;;5002364;28;20042;-83
2023/09/01 03:33:54;;;;;;;3.95;2.40;;;12.20;99.90;;;;;;5017321;28;20060;-84
2023/09/01 03:36:20;;;;;;;3.72;1.80;;;12.20;99.90;;;;;;5006841;28;20035;-84
2023/09/01 03:38:47;;;;;;;3.40;2.10;;;12.20;99.90;;;;;;5006236;28;20034;-84
2023/09/01 03:41:12;;;;;;;2.03;1.70;;;12.20;99.90;;;;;;5014468;28;20015;-83
2023/09/01 03:43:38;;;;;;;5.80;2.28;;;12.20;99.90;;;;;;5009042;28;20027;-84
2023/09/01 03:46:04;;;;;;;2.10;1.90;;;12.20;99.90;;;;;;5010670;28;20031;-83
2023/09/01 03:48:29;;;;;;;4.45;2.40;;;12.20;99.90;;;;;;5011469;28;20273;-84
2023/09/01 03:51:14;;;;;;;4.00;1.80;;;12.30;99.90;;;;;;5013228;28;20042;-84
2023/09/01 03:53:40;;;;;;;3.03;1.90;;;12.20;99.90;;;;;;5015656;28;20022;-84
2023/09/01 03:56:13;;;;;;;3.78;2.50;;;12.20;99.90;;;;;;4994607;28;20095;-84
2023/09/01 03:58:40;;;;;;;2.03;1.80;;;12.20;99.90;;;;;;5012679;28;20121;-84
2023/09/01 04:01:08;;;;;;;3.95;2.05;;;12.10;99.90;;;;;;5007744;28;20133;-83
2023/09/01 04:03:37;;;;;;;3.00;1.95;;;12.10;99.90;;;;;;5010609;28;20030;-83
2023/09/01 04:06:06;;;;;;;3.00;2.15;;;12.10;99.90;;;;;;5002189;28;20028;-84
2023/09/01 04:08:34;;;;;;;4.43;2.50;;;12.00;99.90;;;;;;5017589;28;20081;-84
2023/09/01 04:11:00;;;;;;;5.18;1.98;;;12.00;99.90;;;;;;5004099;28;20080;-84
2023/09/01 04:13:25;;;;;;;2.90;2.20;;;11.90;99.90;;;;;;5015924;28;20077;-84
2023/09/01 04:15:51;;;;;;;3.38;2.20;;;12.00;99.90;;;;;;5004955;28;20027;-83
2023/09/01 04:18:17;;;;;;;5.57;2.15;;;11.90;99.90;;;;;;5015155;28;20049;-83
2023/09/01 04:20:47;;;;;;;3.33;2.10;;;11.90;99.90;;;;;;5013512;28;20057;-84
2023/09/01 04:23:14;;;;;;;3.35;1.88;;;11.90;99.90;;;;;;5011731;28;20014;-84
2023/09/01 04:25:39;;;;;;;2.80;2.17;;;11.90;99.90;;;;;;5011617;28;20031;-85
2023/09/01 04:28:05;;;;;;;2.70;2.22;;;11.90;99.90;;;;;;5018943;28;20014;-84
2023/09/01 04:30:30;;;;;;;4.47;2.25;;;11.90;99.90;;;;;;5007849;28;21123;-84
2023/09/01 04:32:56;;;;;;;3.60;2.83;;;11.90;99.90;;;;;;5022392;28;20018;-83
2023/09/01 04:35:21;;;;;;;4.43;2.50;;;11.90;99.90;;;;;;5018204;28;20041;-84
2023/09/01 04:37:47;;;;;;;6.20;3.10;;;11.90;99.90;;;;;;5018006;28;20041;-85
2023/09/01 04:40:13;;;;;;;7.50;3.45;;;11.90;99.90;;;;;;5012361;28;20022;-84
2023/09/01 04:42:39;;;;;;;5.93;2.60;;;11.90;99.90;;;;;;5017153;28;20023;-83
2023/09/01 04:45:05;;;;;;;6.38;3.10;;;11.90;99.90;;;;;;5014643;28;20046;-85
2023/09/01 04:47:30;;;;;;;6.53;2.58;;;11.90;99.90;;;;;;5007949;28;20054;-84
2023/09/01 04:49:56;;;;;;;3.85;2.33;;;12.00;99.90;;;;;;5001887;28;20019;-83
2023/09/01 04:52:23;;;;;;;6.32;3.33;;;12.00;99.90;;;;;;5006059;28;20026;-84
2023/09/01 04:54:48;;;;;;;3.70;2.53;;;12.00;99.90;;;;;;5006172;28;20061;-84
2023/09/01 04:57:14;;;;;;;4.45;2.50;;;12.00;99.90;;;;;;5015801;28;20029;-84
2023/09/01 04:59:39;;;;;;;3.40;2.13;;;12.00;99.90;;;;;;5010612;28;20026;-83
2023/09/01 05:02:06;;;;;;;4.05;2.22;;;11.90;99.90;;;;;;5017227;28;20038;-83
2023/09/01 05:04:31;;;;;;;3.70;2.53;;;12.00;99.90;;;;;;5003633;28;20042;-83
2023/09/01 05:06:57;;;;;;;5.90;2.33;;;12.00;99.90;;;;;;5009068;28;20031;-83
2023/09/01 05:09:23;;;;;;;2.72;1.90;;;11.90;99.90;;;;;;5007634;28;20027;-84
2023/09/01 05:11:48;;;;;;;4.20;1.85;;;11.90;99.90;;;;;;5009503;28;20045;-83
2023/09/01 05:14:14;;;;;;;2.15;1.92;;;11.90;99.90;;;;;;5012490;28;20033;-84
2023/09/01 05:16:40;;;;;;;4.45;2.20;;;11.90;99.90;;;;;;5000219;28;20031;-84
2023/09/01 05:19:05;;;;;;;2.97;2.13;;;11.90;99.90;;;;;;5011697;28;20018;-83
2023/09/01 05:21:31;;;;;;;2.25;2.05;;;11.90;99.90;;;;;;5000285;28;20056;-85
2023/09/01 05:23:56;;;;;;;3.80;2.42;;;11.80;99.90;;;;;;5012806;28;20037;-84
2023/09/01 05:26:22;;;;;;;2.63;1.90;;;11.90;99.90;;;;;;5004329;28;20023;-85
2023/09/01 05:28:47;;;;;;;2.15;1.95;;;11.90;99.90;;;;;;5006897;28;20029;-85
2023/09/01 05:31:13;;;;;;;3.20;2.28;;;11.90;99.90;;;;;;5004772;28;20045;-84
2023/09/01 05:33:39;;;;;;;2.03;1.77;;;11.90;99.90;;;;;;5017921;28;20029;-84
2023/09/01 05:36:05;;;;;;;4.55;2.70;;;11.90;99.90;;;;;;5011603;28;20101;-84
2023/09/01 05:38:30;;;;;;;5.93;2.67;;;11.90;99.90;;;;;;5013018;28;20038;-83
2023/09/01 05:41:00;;;;;;;5.07;2.42;;;11.90;99.90;;;;;;5010482;28;20021;-84
2023/09/01 05:43:26;;;;;;;5.40;2.13;;;11.90;99.90;;;;;;5012803;28;20065;-84
2023/09/01 05:45:51;;;;;;;4.78;1.90;;;11.90;99.90;;;;;;5017275;28;20034;-85
2023/09/01 05:48:17;;;;;;;5.18;2.38;;;12.00;99.90;;;;;;5014951;28;20057;-85
2023/09/01 05:50:43;;;;;;;3.28;2.33;;;12.00;99.90;;;;;;5009938;28;20031;-83
2023/09/01 05:53:10;;;;;;;7.07;2.42;;;12.10;99.90;;;;;;5016567;28;20073;-82
2023/09/01 05:55:36;;;;;;;3.20;2.10;;;12.20;99.90;;;;;;5016656;28;20098;-85
2023/09/01 05:58:02;;;;;;;3.80;2.00;;;12.20;99.90;;;;;;5016213;28;20061;-85
2023/09/01 06:00:29;;;;;;;1.63;1.50;;;12.30;99.90;;;;;;5012452;28;20035;-84
2023/09/01 06:02:55;;;;;;;3.22;2.25;;;12.30;99.90;;;;;;5025790;28;20042;-85
2023/09/01 06:05:21;;;;;;;2.78;2.15;;;12.30;99.90;;;;;;5008633;28;20029;-85
2023/09/01 06:07:47;;;;;;;2.72;1.88;;;12.40;99.90;;;;;;5018742;28;20069;-85
2023/09/01 06:10:13;;;;;;;2.92;1.80;;;12.40;99.90;;;;;;5010435;28;20014;-85
2023/09/01 06:12:38;;;;;;;3.30;1.90;;;12.40;99.90;;;;;;5013157;28;20037;-85
2023/09/01 06:15:05;;;;;;;3.00;2.08;;;12.50;99.90;;;;;;5011724;28;20521;-85
2023/09/01 06:17:31;;;;;;;4.13;2.15;;;12.50;99.90;;;;;;5015840;28;20023;-85
2023/09/01 06:19:57;;;;;;;2.70;2.10;;;12.60;99.90;;;;;;5012040;28;20029;-84
2023/09/01 06:22:22;;;;;;;3.25;2.00;;;12.60;99.90;;;;;;5010371;28;20049;-85
2023/09/01 06:24:48;;;;;;;2.58;1.98;;;12.70;99.90;;;;;;5023708;28;20021;-85
2023/09/01 06:27:13;;;;;;;4.07;1.85;;;12.70;99.90;;;;;;5015874;28;20462;-86
2023/09/01 06:29:39;;;;;;;4.35;1.92;;;12.80;99.90;;;;;;5009428;28;20026;-86
2023/09/01 06:32:05;;;;;;;4.60;2.40;;;12.90;99.90;;;;;;5011810;28;20046;-85
2023/09/01 06:34:30;;;;;;;4.22;1.83;;;13.00;99.90;;;;;;5002231;28;20023;-86
2023/09/01 06:36:56;;;;;;;3.15;1.48;;;13.00;99.90;;;;;;5022264;28;20013;-85
2023/09/01 06:39:22;;;;;;;1.58;1.42;;;13.00;99.90;;;;;;5016710;28;20034;-85
2023/09/01 06:41:47;;;;;;;3.50;1.67;;;13.10;99.90;;;;;;5014702;28;20023;-85
2023/09/01 06:44:13;;;;;;;3.58;1.80;;;13.00;99.90;;;;;;5022511;28;20026;-87
2023/09/01 06:46:39;;;;;;;2.78;1.38;;;13.10;99.90;;;;;;5016669;28;20014;-84
2023/09/01 06:49:04;;;;;;;2.13;1.50;;;13.10;99.90;;;;;;5011560;28;20393;-86
2023/09/01 06:51:30;;;;;;;1.80;1.70;;;13.10;99.90;;;;;;5023214;28;20040;-85
2023/09/01 06:53:56;;;;;;;4.18;1.67;;;13.20;99.90;;;;;;5015761;28;20033;-86
2023/09/01 06:56:21;;;;;;;2.72;1.70;;;13.20;99.90;;;;;;5020366;28;20018;-86
2023/09/01 06:58:47;;;;;;;3.35;2.17;;;13.30;99.90;;;;;;5017976;28;20041;-85
2023/09/01 07:01:15;;;;;;;7.53;1.75;;;13.40;99.90;;;;;;5025834;28;20038;-86
2023/09/01 07:03:41;;;;;;;3.95;1.48;;;13.40;99.90;;;;;;5020948;28;20235;-86
2023/09/01 07:06:06;;;;;;;1.95;1.33;;;13.40;99.90;;;;;;5014176;28;20025;-86
2023/09/01 07:08:35;;;;;;;5.53;1.70;;;13.50;99.90;;;;;;5022856;28;20030;-85
2023/09/01 07:11:05;;;;;;;4.18;1.70;;;13.60;99.90;;;;;;5011875;28;20108;-86
2023/09/01 07:13:31;;;;;;;1.65;1.00;;;13.70;99.90;;;;;;5011610;28;20094;-85
2023/09/01 07:15:57;;;;;;;1.98;1.55;;;13.90;99.90;;;;;;5015794;28;20026;-86
2023/09/01 07:18:25;;;;;;;4.18;1.50;;;14.10;99.90;;;;;;5009121;28;20073;-88
2023/09/01 07:20:51;;;;;;;2.38;1.35;;;14.20;99.90;;;;;;5006106;28;20477;-87
2023/09/01 07:23:17;;;;;;;3.25;1.20;;;14.30;99.90;;;;;;5008876;28;20106;-87
2023/09/01 07:25:44;;;;;;;1.70;1.17;;;14.50;99.90;;;;;;5024575;28;20582;-86
2023/09/01 07:28:13;;;;;;;1.90;1.40;;;14.70;99.90;;;;;;5015501;28;20060;-86
2023/09/01 07:30:39;;;;;;;3.58;1.70;;;14.90;99.90;;;;;;5009989;28;20034;-84
2023/09/01 07:33:04;;;;;;;3.80;1.08;;;15.10;99.90;;;;;;5027619;28;20072;-86
2023/09/01 07:35:30;;;;;;;1.20;0.90;;;15.40;99.90;;;;;;5017573;28;20030;-85
2023/09/01 07:37:56;;;;;;;2.67;1.45;;;15.60;99.90;;;;;;5013411;28;20099;-87
2023/09/01 07:40:23;;;;;;;1.20;0.80;;;15.80;99.90;;;;;;5008453;28;20042;-87
2023/09/01 07:42:48;;;;;;;2.13;1.10;;;16.00;99.90;;;;;;5017484;28;20023;-86
2023/09/01 07:45:14;;;;;;;3.97;1.15;;;16.10;99.90;;;;;;5010921;28;20064;-88
2023/09/01 07:47:40;;;;;;;5.30;1.08;;;16.10;99.90;;;;;;5015278;28;20389;-85
2023/09/01 07:50:07;;;;;;;2.97;0.85;;;16.00;99.90;;;;;;5008511;28;20061;-88
2023/09/01 07:52:32;;;;;;;2.45;0.90;;;16.10;99.90;;;;;;5012946;28;20034;-87
2023/09/01 07:54:58;;;;;;;4.07;1.30;;;16.10;99.90;;;;;;5013687;28;20055;-86
2023/09/01 07:57:23;;;;;;;2.20;1.30;;;16.20;99.90;;;;;;5013283;28;20489;-85
2023/09/01 07:59:52;;;;;;;3.10;1.13;;;16.30;99.90;;;;;;5006807;28;20031;-87
2023/09/01 08:02:20;;;;;;;1.52;0.93;;;16.40;99.90;;;;;;5017891;28;20036;-86
2023/09/01 08:04:46;;;;;;;3.03;1.35;;;16.40;99.90;;;;;;5009311;28;20076;-86
2023/09/01 08:07:12;;;;;;;3.33;0.90;;;16.50;99.90;;;;;;5000926;28;20011;-88
2023/09/01 08:09:37;;;;;;;1.60;1.00;;;16.60;99.90;;;;;;5019232;28;20253;-86
2023/09/01 08:12:03;;;;;;;5.22;1.58;;;16.70;99.90;;;;;;5011583;28;20126;-88
2023/09/01 08:14:29;;;;;;;1.30;0.90;;;16.80;99.90;;;;;;5006290;28;20018;-87
2023/09/01 08:16:54;;;;;;;1.92;0.88;;;16.90;99.90;;;;;;5014099;28;20058;-86
2023/09/01 08:19:20;;;;;;;2.30;1.00;;;17.00;99.90;;;;;;5008506;28;20013;-87
2023/09/01 08:21:45;;;;;;;2.58;1.15;;;17.00;99.90;;;;;;5018948;28;20163;-86
2023/09/01 08:24:11;;;;;;;3.65;0.90;;;17.10;99.90;;;;;;5020751;28;20105;-87
2023/09/01 08:26:37;;;;;;;1.35;0.68;;;17.20;99.90;;;;;;5019104;28;20098;-87
2023/09/01 08:29:04;;;;;;;2.08;1.10;;;17.30;99.90;;;;;;4998626;28;20418;-87
2023/09/01 08:31:32;;;;;;;2.10;0.88;;;17.40;99.90;;;;;;5003067;28;20069;-84
2023/09/01 08:33:57;;;;;;;2.80;1.00;;;17.40;99.90;;;;;;5009839;28;20040;-87
2023/09/01 08:36:23;;;;;;;3.42;1.15;;;17.40;99.90;;;;;;5012920;28;20081;-87
2023/09/01 08:38:49;;;;;;;2.20;0.93;;;17.40;99.90;;;;;;5000608;28;20125;-86
2023/09/01 08:41:14;;;;;;;2.33;1.00;;;17.50;99.90;;;;;;5008653;28;20037;-85
2023/09/01 08:43:42;;;;;;;1.95;1.08;;;17.50;99.90;;;;;;5010950;28;20022;-86
2023/09/01 08:46:08;;;;;;;1.88;0.70;;;17.50;99.90;;;;;;5008372;28;20074;-88
2023/09/01 08:48:34;;;;;;;1.80;0.60;;;17.60;99.90;;;;;;5002975;28;20122;-85
2023/09/01 08:51:03;;;;;;;2.10;0.90;;;17.60;99.90;;;;;;5009227;28;20042;-86
2023/09/01 08:53:29;;;;;;;1.92;0.88;;;17.60;99.90;;;;;;4999468;28;20104;-87
2023/09/01 08:55:55;;;;;;;3.55;1.30;;;17.60;99.90;;;;;;5005847;28;20058;-87
2023/09/01 08:58:21;;;;;;;1.25;1.05;;;17.60;99.90;;;;;;5012719;28;20030;-86
2023/09/01 09:00:47;;;;;;;2.65;1.00;;;17.70;99.90;;;;;;5007561;28;20078;-86
2023/09/01 09:03:14;;;;;;;3.22;1.00;;;17.70;99.90;;;;;;5012018;28;20101;-87
2023/09/01 09:05:40;;;;;;;1.77;0.82;;;17.70;99.90;;;;;;5006549;28;20022;-83
2023/09/01 09:08:07;;;;;;;1.52;1.08;;;17.70;99.90;;;;;;5015756;28;20026;-85
2023/09/01 09:10:43;;;;;;;4.50;1.00;;;17.70;99.90;;;;;;5012478;28;20043;-85
2023/09/01 09:13:29;;;;;;;1.60;0.75;;;17.80;99.90;;;;;;5008224;28;20049;-87
2023/09/01 09:16:07;;;;;;;1.67;1.27;;;17.80;99.90;;;;;;4999624;28;20026;-87
2023/09/01 09:18:33;;;;;;;2.22;1.05;;;17.90;99.90;;;;;;5008182;28;20563;-84
2023/09/01 09:20:59;;;;;;;3.53;1.08;;;17.90;99.90;;;;;;5008578;28;20097;-87
2023/09/01 09:23:45;;;;;;;3.50;1.35;;;17.90;99.90;;;;;;5002608;28;20524;-86
2023/09/01 09:26:12;;;;;;;2.20;1.13;;;17.90;99.90;;;;;;5011503;28;20022;-87
2023/09/01 09:28:37;;;;;;;0.98;0.88;;;17.80;99.90;;;;;;5003190;28;20037;-87
2023/09/01 09:31:03;;;;;;;3.13;1.35;;;17.80;99.90;;;;;;5001269;28;20061;-86
2023/09/01 09:33:33;;;;;;;1.15;0.75;;;17.80;99.90;;;;;;5013235;28;20056;-86
2023/09/01 09:36:00;;;;;;;1.33;1.15;;;17.80;99.90;;;;;;5000835;28;20045;-86
2023/09/01 09:38:48;;;;;;;1.83;1.20;;;17.90;99.90;;;;;;5000429;28;20081;-87
2023/09/01 09:41:14;;;;;;;1.30;0.70;;;17.90;99.90;;;;;;5006017;28;20042;-86
2023/09/01 09:43:49;;;;;;;1.88;0.90;;;17.90;99.90;;;;;;5009048;28;20026;-87
2023/09/01 09:46:17;;;;;;;2.35;0.85;;;17.90;99.90;;;;;;5013174;28;20663;-86
2023/09/01 09:48:43;;;;;;;4.28;0.93;;;18.00;99.90;;;;;;5015255;28;20022;-86
2023/09/01 09:51:10;;;;;;;3.10;1.10;;;18.10;99.90;;;;;;5018579;28;20102;-87
2023/09/01 09:53:38;;;;;;;1.77;1.30;;;18.10;99.90;;;;;;5009478;28;20026;-85
2023/09/01 09:56:19;;;;;;;1.92;1.23;;;18.00;99.90;;;;;;5004423;28;20536;-87
2023/09/01 09:58:47;;;;;;;2.90;1.45;;;17.80;99.90;;;;;;5009823;28;20052;-87
2023/09/01 10:01:22;;;;;;;1.17;1.08;;;17.80;99.90;;;;;;5001234;28;20042;-88
2023/09/01 10:03:49;;;;;;;1.65;1.23;;;17.70;99.90;;;;;;5003915;28;20025;-87
2023/09/01 10:06:18;;;;;;;3.15;1.05;;;17.70;99.90;;;;;;5005811;28;20033;-86
2023/09/01 10:08:45;;;;;;;4.38;1.17;;;17.70;99.90;;;;;;5003584;28;20030;-86
2023/09/01 10:11:14;;;;;;;1.35;1.10;;;17.80;99.90;;;;;;5004712;28;20118;-84
2023/09/01 10:13:42;;;;;;;4.25;1.23;;;18.00;99.90;;;;;;5002471;28;20026;-87
2023/09/01 10:16:08;;;;;;;2.58;1.10;;;18.10;99.90;;;;;;5006391;28;20577;-87
2023/09/01 10:18:34;;;;;;;2.53;1.00;;;18.30;99.90;;;;;;5001809;28;20057;-87
2023/09/01 10:21:00;;;;;;;4.90;1.13;;;18.50;99.90;;;;;;5014765;28;20066;-87
2023/09/01 10:23:30;;;;;;;3.03;1.10;;;18.50;99.90;;;;;;5001271;28;20018;-87
2023/09/01 10:26:28;;;;;;;2.05;1.02;;;18.50;99.90;;;;;;5007456;28;20025;-86
2023/09/01 10:29:04;;;;;;;2.50;1.42;;;18.40;99.90;;;;;;4998496;28;20663;-86
2023/09/01 10:31:31;;;;;;;2.33;1.05;;;18.30;99.90;;;;;;5009717;28;20543;-87
2023/09/01 10:34:08;;;;;;;3.67;1.20;;;18.20;99.90;;;;;;5005939;28;20393;-86
2023/09/01 10:36:34;;;;;;;4.55;1.42;;;18.00;99.90;;;;;;5003243;28;20034;-87
2023/09/01 10:39:18;;;;;;;2.13;1.00;;;18.00;99.90;;;;;;5006340;28;20025;-88
2023/09/01 10:41:51;;;;;;;2.40;1.40;;;17.90;99.90;;;;;;5002504;28;20061;-87
2023/09/01 10:44:17;;;;;;;2.42;1.00;;;18.00;99.90;;;;;;5007087;28;20023;-88
2023/09/01 10:46:43;;;;;;;1.50;1.05;;;18.00;99.90;;;;;;5025809;28;20075;-85
2023/09/01 10:49:10;;;;;;;2.78;1.08;;;18.00;99.90;;;;;;5018929;28;20481;-88
2023/09/01 10:51:43;;;;;;;1.73;0.88;;;18.10;99.90;;;;;;5012063;28;20030;-87
2023/09/01 10:54:15;;;;;;;1.15;1.02;;;18.00;99.90;;;;;;4988835;28;20062;-87
2023/09/01 10:56:57;;;;;;;1.70;0.82;;;18.10;99.90;;;;;;5002537;28;20465;-87
2023/09/01 10:59:29;;;;;;;1.42;0.90;;;18.00;99.90;;;;;;5005128;28;20026;-86
2023/09/01 11:01:55;;;;;;;1.55;0.80;;;18.00;99.90;;;;;;5011690;28;20054;-86
2023/09/01 11:04:21;;;;;;;1.73;0.93;;;18.10;99.90;;;;;;5008095;28;20037;-87
2023/09/01 11:07:03;;;;;;;1.67;0.75;;;18.20;99.90;;;;;;5005613;28;20019;-87
2023/09/01 11:09:34;;;;;;;2.20;1.15;;;18.30;99.90;;;;;;5015968;28;20022;-87
2023/09/01 11:12:02;;;;;;;1.80;0.80;;;18.40;99.90;;;;;;4995494;28;20026;-84
2023/09/01 11:14:27;;;;;;;1.42;0.90;;;18.40;99.90;;;;;;4994042;28;20089;-85
2023/09/01 11:16:53;;;;;;;1.55;1.33;;;18.40;99.90;;;;;;5004110;28;20449;-85
2023/09/01 11:19:19;;;;;;;2.70;1.58;;;18.50;99.90;;;;;;4998709;28;20018;-84
2023/09/01 11:21:46;;;;;;;1.48;0.98;;;18.60;99.90;;;;;;4999518;28;20532;-85
2023/09/01 11:24:12;;;;;;;1.73;0.60;;;18.70;99.90;;;;;;4998667;28;20288;-84
2023/09/01 11:26:38;;;;;;;2.58;0.80;;;18.70;99.90;;;;;;5007271;28;20079;-83
2023/09/01 11:29:09;;;;;;;3.28;0.90;;;18.90;99.90;;;;;;4995911;28;20026;-86
2023/09/01 11:31:43;;;;;;;1.33;0.93;;;19.00;99.90;;;;;;5007969;28;20116;-84
2023/09/01 11:34:09;;;;;;;1.33;1.10;;;19.00;99.90;;;;;;5000477;28;20018;-87
2023/09/01 11:36:45;;;;;;;2.45;1.27;;;19.00;99.90;;;;;;4998891;28;20383;-87
2023/09/01 11:39:11;;;;;;;2.00;1.08;;;19.10;99.90;;;;;;4998663;28;20075;-86
2023/09/01 11:41:37;;;;;;;1.33;0.93;;;19.10;99.90;;;;;;5001111;28;20101;-87
2023/09/01 11:44:03;;;;;;;4.00;1.20;;;19.20;99.90;;;;;;5007343;28;20018;-87
2023/09/01 11:46:33;;;;;;;2.65;1.02;;;19.30;99.90;;;;;;5004423;28;20045;-85
2023/09/01 11:49:00;;;;;;;1.98;0.68;;;19.20;99.90;;;;;;4998685;28;20481;-88
2023/09/01 11:51:33;;;;;;;1.75;1.10;;;19.20;99.90;;;;;;5002136;28;20109;-87
2023/09/01 11:53:58;;;;;;;2.25;0.75;;;19.10;99.90;;;;;;5002053;28;20026;-87
2023/09/01 11:56:25;;;;;;;2.08;0.93;;;19.00;99.90;;;;;;4996423;28;20129;-88
2023/09/01 11:58:55;;;;;;;4.00;1.20;;;19.00;99.90;;;;;;4995786;28;20117;-87
2023/09/01 12:01:23;;;;;;;2.28;1.00;;;18.90;99.90;;;;;;4997545;28;20053;-87
2023/09/01 12:04:09;;;;;;;1.30;0.73;;;18.80;99.90;;;;;;4994018;28;20037;-88
2023/09/01 12:06:49;;;;;;;1.52;0.93;;;18.80;99.90;;;;;;4997870;28;20022;-86
2023/09/01 12:09:18;;;;;;;1.25;0.70;;;18.80;99.90;;;;;;5008275;28;20225;-87
2023/09/01 12:11:54;;;;;;;1.27;0.80;;;18.80;99.90;;;;;;5016286;28;20037;-87
2023/09/01 12:14:27;;;;;;;1.48;1.00;;;19.00;99.90;;;;;;5020740;28;20029;-88
2023/09/01 12:16:53;;;;;;;3.67;0.82;;;19.00;99.90;;;;;;4999535;28;20022;-87
2023/09/01 12:19:27;;;;;;;1.38;1.17;;;19.10;99.90;;;;;;5004719;28;20028;-87
2023/09/01 12:21:54;;;;;;;3.85;1.10;;;19.10;99.90;;;;;;4981330;28;20018;-88
2023/09/01 12:24:20;;;;;;;1.45;0.88;;;19.10;99.90;;;;;;4996074;28;20113;-88
2023/09/01 12:26:46;;;;;;;1.40;0.73;;;19.00;99.90;;;;;;5002444;28;20073;-87
2023/09/01 12:29:12;;;;;;;2.20;0.95;;;19.00;99.90;;;;;;4996464;28;20023;-87
2023/09/01 12:31:38;;;;;;;1.83;1.00;;;19.00;99.90;;;;;;4986033;28;20134;-87
2023/09/01 12:34:03;;;;;;;1.10;0.90;;;18.90;99.90;;;;;;5003088;28;20022;-87
2023/09/01 12:36:30;;;;;;;1.67;1.30;;;19.00;99.90;;;;;;4996935;28;20033;-87
2023/09/01 12:38:55;;;;;;;2.40;0.80;;;19.10;99.90;;;;;;4999582;28;20102;-85
2023/09/01 12:41:21;;;;;;;2.55;1.05;;;19.20;99.90;;;;;;5005678;28;20124;-83
2023/09/01 12:43:46;;;;;;;2.20;0.90;;;19.20;99.90;;;;;;5006300;28;20045;-85
2023/09/01 12:46:12;;;;;;;2.45;0.95;;;19.20;99.90;;;;;;5000065;28;20019;-87
2023/09/01 12:48:37;;;;;;;3.40;0.90;;;19.20;99.90;;;;;;4998241;28;20026;-87
2023/09/01 12:51:03;;;;;;;1.40;1.23;;;19.20;99.90;;;;;;5001025;28;20461;-85